Trans Sea — 9HA2564 — position and weather

sailwx.info

Track history (hours):
 
Tides and Currents Weather Stations Pressure Air Temp Water Temp Dewpoint Dewpoint Depression Visibility Wind Speed Wind Dir Waves Ship Positions

Trans Sea

Last reported at 2015-Mar-27 13:29 UTC. Time now 2015-Mar-28 05:12 UTC.
Position N 50°36' E 000°28'.

Length 107 m; draft 7.2 m.

Type: Tanker. MMSI: 248887000.

Date/timePositionNaut miles runAvg speedWind from/ knotsBaromVisibWave heightAir tempDewpointWater temp
2015-Mar-27 13:29N 50°36' E 000°28'1111.8
2015-Mar-27 12:33N 50°41' E 000°43'2913.6
2015-Mar-27 10:27N 50°59' E 001°18'1314.1
2015-Mar-27 09:33N 51°07' E 001°34'1212.5
2015-Mar-27 08:33N 51°16' E 001°48'1211.6
2015-Mar-27 07:33N 51°26' E 001°57'1111.0
2015-Mar-27 06:33N 51°35' E 002°08'10311.4
2015-Mar-26 21:30N 52°55' E 003°55'1210.1
2015-Mar-26 20:19N 53°03' E 004°09'38 9.9
2015-Mar-26 16:32N 53°31' E 004°51'1212.3
2015-Mar-26 15:33N 53°35' E 005°09'1212.2
2015-Mar-26 14:33N 53°40' E 005°29'1211.6
2015-Mar-26 13:33N 53°43' E 005°47'1111.1
2015-Mar-26 12:33N 53°47' E 006°05'4212.3
2015-Mar-26 09:10N 53°58' E 007°14'4 7.3
2015-Mar-26 08:33N 53°59' E 007°21'1313.1
2015-Mar-26 07:33N 54°02' E 007°43'1313.2
2015-Mar-26 06:34N 54°01' E 008°05'1313.3
2015-Mar-26 05:34N 53°59' E 008°27'1111.3
2015-Mar-26 04:33N 53°53' E 008°43'9 8.8
2015-Mar-26 03:34N 53°51' E 008°58'8 8.1
2015-Mar-26 02:33N 53°53' E 009°11'9 8.8
2015-Mar-26 01:33N 53°47' E 009°23'9 0.4
2015-Mar-25 00:33N 53°39' E 009°31'8 7.7
2015-Mar-24 23:33N 53°46' E 009°24'10 9.6
2015-Mar-24 22:33N 53°53' E 009°13'9 8.7
2015-Mar-24 21:33N 53°51' E 008°59'8 8.4
2015-Mar-24 20:33N 53°52' E 008°44'8 8.4
2015-Mar-24 19:33N 53°58' E 008°35'3 2.1
2015-Mar-24 18:10N 53°58' E 008°30'0 0.0
2015-Mar-24 17:28N 53°58' E 008°30'5 1.9
2015-Mar-24 14:32N 53°59' E 008°21'1010.4
2015-Mar-24 13:33N 54°00' E 008°03'1010.3
2015-Mar-24 12:33N 54°04' E 007°47'0 0.1
2015-Mar-24 11:33N 54°04' E 007°47'0 0.0
2015-Mar-24 10:33N 54°04' E 007°47'0 0.0
2015-Mar-24 09:33N 54°04' E 007°47'0 0.1
2015-Mar-24 08:33N 54°04' E 007°47'0 0.1
2015-Mar-24 07:33N 54°04' E 007°47'0 0.0
2015-Mar-24 06:33N 54°04' E 007°47'0 0.0
2015-Mar-24 05:33N 54°04' E 007°47'0 0.0
2015-Mar-24 04:32N 54°04' E 007°47'0 0.1
2015-Mar-24 03:34N 54°04' E 007°47'0 0.1
2015-Mar-24 02:32N 54°04' E 007°47'0 0.2
2015-Mar-24 01:33N 54°04' E 007°47'1211.7
2015-Mar-24 00:33N 54°09' E 007°29'1413.6
2015-Mar-23 23:34N 54°09' E 007°06'4213.8
2015-Mar-23 20:31N 54°06' E 005°55'1313.2
2015-Mar-23 19:31N 54°05' E 005°32'1313.0
2015-Mar-23 18:33N 54°03' E 005°11'12910.7
2015-Mar-23 06:27N 52°16' E 003°10'1413.1
2015-Mar-23 05:23N 52°02' E 003°06'1413.1
2015-Mar-23 04:20N 51°48' E 003°07'810.3
2015-Mar-23 03:33N 51°43' E 003°17'1212.3
2015-Mar-23 02:33N 51°32' E 003°26'9 9.5
2015-Mar-23 01:33N 51°26' E 003°37'1010.5
2015-Mar-23 00:33N 51°21' E 003°52'7 6.5
2015-Mar-22 23:34N 51°23' E 004°02'9 9.1
2015-Mar-22 22:34N 51°21' E 004°16'0 0.4
2015-Mar-22 21:34N 51°21' E 004°17'1 0.7
2015-Mar-22 20:33N 51°20' E 004°18'4 3.6
2015-Mar-22 19:30N 51°17' E 004°20'0 0.0
2015-Mar-22 18:30N 51°17' E 004°20'0 0.0
2015-Mar-22 17:30N 51°17' E 004°20'0 0.0
2015-Mar-22 16:33N 51°17' E 004°20'0 0.0
2015-Mar-22 15:30N 51°17' E 004°20'0 0.0
2015-Mar-22 14:30N 51°17' E 004°20'0 0.0
2015-Mar-22 13:27N 51°17' E 004°20'0 0.0
2015-Mar-22 12:24N 51°17' E 004°20'0 0.0
2015-Mar-22 11:30N 51°17' E 004°20'0 0.0
2015-Mar-22 10:30N 51°17' E 004°20'0 0.0
2015-Mar-22 09:30N 51°17' E 004°20'0 0.3
2015-Mar-22 08:34N 51°17' E 004°20'2 2.2
2015-Mar-22 07:34N 51°16' E 004°17'1 0.8
2015-Mar-22 06:33N 51°16' E 004°15'0 0.0
2015-Mar-22 05:30N 51°16' E 004°15'0 0.0
2015-Mar-22 04:30N 51°16' E 004°15'0 0.0
2015-Mar-22 03:33N 51°16' E 004°15'0 0.0
2015-Mar-22 02:33N 51°16' E 004°15'0 0.0
2015-Mar-22 01:29N 51°16' E 004°15'0 0.0
2015-Mar-22 00:17N 51°16' E 004°15'0 0.0
2015-Mar-21 23:32N 51°16' E 004°15'0 0.0
2015-Mar-21 22:33N 51°16' E 004°15'0 0.0
2015-Mar-21 21:33N 51°16' E 004°15'0 0.0
2015-Mar-21 20:32N 51°16' E 004°15'0 0.0
2015-Mar-21 19:32N 51°16' E 004°15'0 0.0
2015-Mar-21 18:32N 51°16' E 004°15'0 0.0
2015-Mar-21 17:32N 51°16' E 004°15'0 0.0
2015-Mar-21 16:32N 51°16' E 004°15'0 0.0
2015-Mar-21 14:32N 51°16' E 004°15'0 0.0
2015-Mar-21 13:29N 51°16' E 004°15'0 0.0
2015-Mar-21 12:26N 51°16' E 004°15'0 0.0
2015-Mar-21 11:32N 51°16' E 004°15'0 0.0
2015-Mar-21 10:29N 51°16' E 004°15'0 0.0
2015-Mar-21 09:20N 51°16' E 004°15'0 0.0
2015-Mar-21 08:32N 51°16' E 004°15'0 0.0
2015-Mar-21 07:32N 51°16' E 004°15'0 0.0
2015-Mar-21 06:32N 51°16' E 004°15'0 0.0
2015-Mar-21 05:32N 51°16' E 004°15'0 0.0
2015-Mar-21 04:29N 51°16' E 004°15'0 0.0
2015-Mar-21 03:23N 51°16' E 004°15'0 0.0
2015-Mar-21 02:32N 51°16' E 004°15'0 0.0
2015-Mar-21 01:32N 51°16' E 004°15'0 0.0
2015-Mar-21 00:26N 51°16' E 004°15'0 0.0
2015-Mar-20 23:32N 51°16' E 004°15'0 0.0
2015-Mar-20 22:32N 51°16' E 004°15'0 0.0
2015-Mar-20 21:23N 51°16' E 004°15'0 0.0
2015-Mar-20 20:32N 51°16' E 004°15'0 0.0
2015-Mar-20 19:32N 51°16' E 004°15'0 0.0
2015-Mar-20 18:32N 51°16' E 004°15'0 0.0
2015-Mar-20 17:29N 51°16' E 004°15'0 0.0
2015-Mar-20 16:32N 51°16' E 004°15'0 0.0
2015-Mar-20 15:32N 51°16' E 004°15'1 0.8
2015-Mar-20 14:33N 51°16' E 004°17'2 1.7
2015-Mar-20 13:34N 51°17' E 004°19'8 7.9
2015-Mar-20 12:33N 51°23' E 004°13'9 9.3
2015-Mar-20 11:34N 51°25' E 003°58'1110.9
2015-Mar-20 10:33N 51°25' E 003°40'1211.7
2015-Mar-20 09:33N 51°32' E 003°26'1612.1
2015-Mar-20 08:14N 51°45' E 003°12'912.3
2015-Mar-20 07:30N 51°53' E 003°04'1111.9
2015-Mar-20 06:33N 52°03' E 003°13'1313.0
2015-Mar-20 05:32N 52°04' E 003°35'1212.3
2015-Mar-20 04:33N 52°03' E 003°54'1212.0
2015-Mar-20 03:33N 51°57' E 004°11'5 4.7
2015-Mar-20 02:31N 51°53' E 004°17'0 0.0
2015-Mar-20 01:07N 51°53' E 004°17'0 0.0
2015-Mar-20 00:31N 51°53' E 004°17'0 0.0
2015-Mar-19 23:22N 51°53' E 004°17'0 0.0
2015-Mar-19 22:31N 51°53' E 004°17'0 0.0
2015-Mar-19 21:19N 51°53' E 004°17'0 0.0
2015-Mar-19 20:31N 51°53' E 004°17'0 0.0
2015-Mar-19 19:31N 51°53' E 004°17'0 0.0
2015-Mar-19 18:25N 51°53' E 004°17'0 0.0
2015-Mar-19 17:13N 51°53' E 004°17'0 0.0
2015-Mar-19 16:28N 51°53' E 004°17'0 0.0
2015-Mar-19 15:31N 51°53' E 004°17'0 0.0
2015-Mar-19 14:25N 51°53' E 004°17'0 0.0
2015-Mar-19 13:25N 51°53' E 004°17'0 0.0
2015-Mar-19 12:31N 51°53' E 004°17'0 0.2
2015-Mar-19 11:33N 51°53' E 004°17'2 2.1
2015-Mar-19 10:31N 51°53' E 004°21'0 0.0
2015-Mar-19 09:31N 51°53' E 004°21'0 0.0
2015-Mar-19 08:25N 51°53' E 004°21'0 0.0
2015-Mar-19 07:25N 51°53' E 004°21'0 0.0
2015-Mar-19 06:22N 51°53' E 004°21'0 0.0
2015-Mar-19 05:31N 51°53' E 004°21'0 0.0
2015-Mar-19 04:13N 51°53' E 004°21'0 0.0
2015-Mar-19 03:31N 51°53' E 004°21'0 0.0
2015-Mar-19 02:31N 51°53' E 004°21'0 0.0
2015-Mar-19 01:04N 51°53' E 004°21'0 0.0
2015-Mar-19 00:25N 51°53' E 004°21'0 0.0
2015-Mar-18 22:31N 51°53' E 004°21'0 0.0
2015-Mar-18 21:31N 51°53' E 004°21'0 0.0
2015-Mar-18 20:31N 51°53' E 004°21'0 0.0
2015-Mar-18 19:31N 51°53' E 004°21'0 0.3
2015-Mar-18 18:33N 51°53' E 004°21'8 7.9
2015-Mar-18 17:33N 51°57' E 004°10'1010.4
2015-Mar-18 16:33N 51°60' E 003°53'1211.0
2015-Mar-18 15:29N 51°57' E 003°35'1212.5
2015-Mar-18 14:32N 51°54' E 003°16'4112.9
2015-Mar-18 11:20N 51°32' E 002°19'1013.1
2015-Mar-18 10:33N 51°24' E 002°11'1312.6
2015-Mar-18 09:33N 51°13' E 002°01'1313.2
2015-Mar-18 08:34N 51°05' E 001°44'1312.7
2015-Mar-18 07:33N 50°56' E 001°30'1511.4
2015-Mar-18 06:14N 50°42' E 001°22'  
Track history (hours):
 
Tides and Currents Weather Stations Pressure Air Temp Water Temp Dewpoint Dewpoint Depression Visibility Wind Speed Wind Dir Waves Ship Positions

Trans Sea

Last reported at 2015-Mar-27 13:29 UTC. Time now 2015-Mar-28 05:12 UTC.
Position N 50°36' E 000°28'.

Length 107 m; draft 7.2 m.

Type: Tanker. MMSI: 248887000.

Date/timePositionNaut miles runAvg speedWind from/ knotsBaromVisibWave heightAir tempDewpointWater temp
2015-Mar-27 13:29N 50°36' E 000°28'1111.8
2015-Mar-27 12:33N 50°41' E 000°43'2913.6
2015-Mar-27 10:27N 50°59' E 001°18'1314.1
2015-Mar-27 09:33N 51°07' E 001°34'1212.5
2015-Mar-27 08:33N 51°16' E 001°48'1211.6
2015-Mar-27 07:33N 51°26' E 001°57'1111.0
2015-Mar-27 06:33N 51°35' E 002°08'10311.4
2015-Mar-26 21:30N 52°55' E 003°55'1210.1
2015-Mar-26 20:19N 53°03' E 004°09'38 9.9
2015-Mar-26 16:32N 53°31' E 004°51'1212.3
2015-Mar-26 15:33N 53°35' E 005°09'1212.2
2015-Mar-26 14:33N 53°40' E 005°29'1211.6
2015-Mar-26 13:33N 53°43' E 005°47'1111.1
2015-Mar-26 12:33N 53°47' E 006°05'4212.3
2015-Mar-26 09:10N 53°58' E 007°14'4 7.3
2015-Mar-26 08:33N 53°59' E 007°21'1313.1
2015-Mar-26 07:33N 54°02' E 007°43'1313.2
2015-Mar-26 06:34N 54°01' E 008°05'1313.3
2015-Mar-26 05:34N 53°59' E 008°27'1111.3
2015-Mar-26 04:33N 53°53' E 008°43'9 8.8
2015-Mar-26 03:34N 53°51' E 008°58'8 8.1
2015-Mar-26 02:33N 53°53' E 009°11'9 8.8
2015-Mar-26 01:33N 53°47' E 009°23'9 0.4
2015-Mar-25 00:33N 53°39' E 009°31'8 7.7
2015-Mar-24 23:33N 53°46' E 009°24'10 9.6
2015-Mar-24 22:33N 53°53' E 009°13'9 8.7
2015-Mar-24 21:33N 53°51' E 008°59'8 8.4
2015-Mar-24 20:33N 53°52' E 008°44'8 8.4
2015-Mar-24 19:33N 53°58' E 008°35'3 2.1
2015-Mar-24 18:10N 53°58' E 008°30'0 0.0
2015-Mar-24 17:28N 53°58' E 008°30'5 1.9
2015-Mar-24 14:32N 53°59' E 008°21'1010.4
2015-Mar-24 13:33N 54°00' E 008°03'1010.3
2015-Mar-24 12:33N 54°04' E 007°47'0 0.1
2015-Mar-24 11:33N 54°04' E 007°47'0 0.0
2015-Mar-24 10:33N 54°04' E 007°47'0 0.0
2015-Mar-24 09:33N 54°04' E 007°47'0 0.1
2015-Mar-24 08:33N 54°04' E 007°47'0 0.1
2015-Mar-24 07:33N 54°04' E 007°47'0 0.0
2015-Mar-24 06:33N 54°04' E 007°47'0 0.0
2015-Mar-24 05:33N 54°04' E 007°47'0 0.0
2015-Mar-24 04:32N 54°04' E 007°47'0 0.1
2015-Mar-24 03:34N 54°04' E 007°47'0 0.1
2015-Mar-24 02:32N 54°04' E 007°47'0 0.2
2015-Mar-24 01:33N 54°04' E 007°47'1211.7
2015-Mar-24 00:33N 54°09' E 007°29'1413.6
2015-Mar-23 23:34N 54°09' E 007°06'4213.8
2015-Mar-23 20:31N 54°06' E 005°55'1313.2
2015-Mar-23 19:31N 54°05' E 005°32'1313.0
2015-Mar-23 18:33N 54°03' E 005°11'12910.7
2015-Mar-23 06:27N 52°16' E 003°10'1413.1
2015-Mar-23 05:23N 52°02' E 003°06'1413.1
2015-Mar-23 04:20N 51°48' E 003°07'810.3
2015-Mar-23 03:33N 51°43' E 003°17'1212.3
2015-Mar-23 02:33N 51°32' E 003°26'9 9.5
2015-Mar-23 01:33N 51°26' E 003°37'1010.5
2015-Mar-23 00:33N 51°21' E 003°52'7 6.5
2015-Mar-22 23:34N 51°23' E 004°02'9 9.1
2015-Mar-22 22:34N 51°21' E 004°16'0 0.4
2015-Mar-22 21:34N 51°21' E 004°17'1 0.7
2015-Mar-22 20:33N 51°20' E 004°18'4 3.6
2015-Mar-22 19:30N 51°17' E 004°20'0 0.0
2015-Mar-22 18:30N 51°17' E 004°20'0 0.0
2015-Mar-22 17:30N 51°17' E 004°20'0 0.0
2015-Mar-22 16:33N 51°17' E 004°20'0 0.0
2015-Mar-22 15:30N 51°17' E 004°20'0 0.0
2015-Mar-22 14:30N 51°17' E 004°20'0 0.0
2015-Mar-22 13:27N 51°17' E 004°20'0 0.0
2015-Mar-22 12:24N 51°17' E 004°20'0 0.0
2015-Mar-22 11:30N 51°17' E 004°20'0 0.0
2015-Mar-22 10:30N 51°17' E 004°20'0 0.0
2015-Mar-22 09:30N 51°17' E 004°20'0 0.3
2015-Mar-22 08:34N 51°17' E 004°20'2 2.2
2015-Mar-22 07:34N 51°16' E 004°17'1 0.8
2015-Mar-22 06:33N 51°16' E 004°15'0 0.0
2015-Mar-22 05:30N 51°16' E 004°15'0 0.0
2015-Mar-22 04:30N 51°16' E 004°15'0 0.0
2015-Mar-22 03:33N 51°16' E 004°15'0 0.0
2015-Mar-22 02:33N 51°16' E 004°15'0 0.0
2015-Mar-22 01:29N 51°16' E 004°15'0 0.0
2015-Mar-22 00:17N 51°16' E 004°15'0 0.0
2015-Mar-21 23:32N 51°16' E 004°15'0 0.0
2015-Mar-21 22:33N 51°16' E 004°15'0 0.0
2015-Mar-21 21:33N 51°16' E 004°15'0 0.0
2015-Mar-21 20:32N 51°16' E 004°15'0 0.0
2015-Mar-21 19:32N 51°16' E 004°15'0 0.0
2015-Mar-21 18:32N 51°16' E 004°15'0 0.0
2015-Mar-21 17:32N 51°16' E 004°15'0 0.0
2015-Mar-21 16:32N 51°16' E 004°15'0 0.0
2015-Mar-21 14:32N 51°16' E 004°15'0 0.0
2015-Mar-21 13:29N 51°16' E 004°15'0 0.0
2015-Mar-21 12:26N 51°16' E 004°15'0 0.0
2015-Mar-21 11:32N 51°16' E 004°15'0 0.0
2015-Mar-21 10:29N 51°16' E 004°15'0 0.0
2015-Mar-21 09:20N 51°16' E 004°15'0 0.0
2015-Mar-21 08:32N 51°16' E 004°15'0 0.0
2015-Mar-21 07:32N 51°16' E 004°15'0 0.0
2015-Mar-21 06:32N 51°16' E 004°15'0 0.0
2015-Mar-21 05:32N 51°16' E 004°15'0 0.0
2015-Mar-21 04:29N 51°16' E 004°15'0 0.0
2015-Mar-21 03:23N 51°16' E 004°15'0 0.0
2015-Mar-21 02:32N 51°16' E 004°15'0 0.0
2015-Mar-21 01:32N 51°16' E 004°15'0 0.0
2015-Mar-21 00:26N 51°16' E 004°15'0 0.0
2015-Mar-20 23:32N 51°16' E 004°15'0 0.0
2015-Mar-20 22:32N 51°16' E 004°15'0 0.0
2015-Mar-20 21:23N 51°16' E 004°15'0 0.0
2015-Mar-20 20:32N 51°16' E 004°15'0 0.0
2015-Mar-20 19:32N 51°16' E 004°15'0 0.0
2015-Mar-20 18:32N 51°16' E 004°15'0 0.0
2015-Mar-20 17:29N 51°16' E 004°15'0 0.0
2015-Mar-20 16:32N 51°16' E 004°15'0 0.0
2015-Mar-20 15:32N 51°16' E 004°15'1 0.8
2015-Mar-20 14:33N 51°16' E 004°17'2 1.7
2015-Mar-20 13:34N 51°17' E 004°19'8 7.9
2015-Mar-20 12:33N 51°23' E 004°13'9 9.3
2015-Mar-20 11:34N 51°25' E 003°58'1110.9
2015-Mar-20 10:33N 51°25' E 003°40'1211.7
2015-Mar-20 09:33N 51°32' E 003°26'1612.1
2015-Mar-20 08:14N 51°45' E 003°12'912.3
2015-Mar-20 07:30N 51°53' E 003°04'1111.9
2015-Mar-20 06:33N 52°03' E 003°13'1313.0
2015-Mar-20 05:32N 52°04' E 003°35'1212.3
2015-Mar-20 04:33N 52°03' E 003°54'1212.0
2015-Mar-20 03:33N 51°57' E 004°11'5 4.7
2015-Mar-20 02:31N 51°53' E 004°17'0 0.0
2015-Mar-20 01:07N 51°53' E 004°17'0 0.0
2015-Mar-20 00:31N 51°53' E 004°17'0 0.0
2015-Mar-19 23:22N 51°53' E 004°17'0 0.0
2015-Mar-19 22:31N 51°53' E 004°17'0 0.0
2015-Mar-19 21:19N 51°53' E 004°17'0 0.0
2015-Mar-19 20:31N 51°53' E 004°17'0 0.0
2015-Mar-19 19:31N 51°53' E 004°17'0 0.0
2015-Mar-19 18:25N 51°53' E 004°17'0 0.0
2015-Mar-19 17:13N 51°53' E 004°17'0 0.0
2015-Mar-19 16:28N 51°53' E 004°17'0 0.0
2015-Mar-19 15:31N 51°53' E 004°17'0 0.0
2015-Mar-19 14:25N 51°53' E 004°17'0 0.0
2015-Mar-19 13:25N 51°53' E 004°17'0 0.0
2015-Mar-19 12:31N 51°53' E 004°17'0 0.2
2015-Mar-19 11:33N 51°53' E 004°17'2 2.1
2015-Mar-19 10:31N 51°53' E 004°21'0 0.0
2015-Mar-19 09:31N 51°53' E 004°21'0 0.0
2015-Mar-19 08:25N 51°53' E 004°21'0 0.0
2015-Mar-19 07:25N 51°53' E 004°21'0 0.0
2015-Mar-19 06:22N 51°53' E 004°21'0 0.0
2015-Mar-19 05:31N 51°53' E 004°21'0 0.0
2015-Mar-19 04:13N 51°53' E 004°21'0 0.0
2015-Mar-19 03:31N 51°53' E 004°21'0 0.0
2015-Mar-19 02:31N 51°53' E 004°21'0 0.0
2015-Mar-19 01:04N 51°53' E 004°21'0 0.0
2015-Mar-19 00:25N 51°53' E 004°21'0 0.0
2015-Mar-18 22:31N 51°53' E 004°21'0 0.0
2015-Mar-18 21:31N 51°53' E 004°21'0 0.0
2015-Mar-18 20:31N 51°53' E 004°21'0 0.0
2015-Mar-18 19:31N 51°53' E 004°21'0 0.3
2015-Mar-18 18:33N 51°53' E 004°21'8 7.9
2015-Mar-18 17:33N 51°57' E 004°10'1010.4
2015-Mar-18 16:33N 51°60' E 003°53'1211.0
2015-Mar-18 15:29N 51°57' E 003°35'1212.5
2015-Mar-18 14:32N 51°54' E 003°16'4112.9
2015-Mar-18 11:20N 51°32' E 002°19'1013.1
2015-Mar-18 10:33N 51°24' E 002°11'1312.6
2015-Mar-18 09:33N 51°13' E 002°01'1313.2
2015-Mar-18 08:34N 51°05' E 001°44'1312.7
2015-Mar-18 07:33N 50°56' E 001°30'1511.4
2015-Mar-18 06:14N 50°42' E 001°22'  

Dump ship's entire track history